createdAt,value
2018-09-11T00:01:08.353Z,7.17
2018-09-11T00:03:38.140Z,7.73
2018-09-11T00:06:08.432Z,7.20
2018-09-11T00:08:37.582Z,7.17
2018-09-11T00:11:06.373Z,6.13
2018-09-11T00:13:35.362Z,6.87
2018-09-11T00:16:04.644Z,6.17
2018-09-11T00:18:33.680Z,6.90
2018-09-11T00:21:03.803Z,6.20
2018-09-11T00:23:32.902Z,6.60
2018-09-11T00:26:02.056Z,5.90
2018-09-11T00:28:30.908Z,5.93
2018-09-11T00:31:01.212Z,7.10
2018-09-11T00:33:30.197Z,6.53
2018-09-11T00:35:59.527Z,6.50
2018-09-11T00:38:28.634Z,7.07
2018-09-11T00:40:57.612Z,6.80
2018-09-11T00:43:26.804Z,7.60
2018-09-11T00:45:55.380Z,7.23
2018-09-11T00:48:24.621Z,7.23
2018-09-11T00:50:53.413Z,6.80
2018-09-11T00:53:22.253Z,6.13
2018-09-11T00:55:52.341Z,6.80
2018-09-11T00:58:21.137Z,7.07
2018-09-11T01:00:50.796Z,6.77
2018-09-11T01:03:19.831Z,7.13
2018-09-11T01:05:48.715Z,6.60
2018-09-11T01:08:18.024Z,6.00
2018-09-11T01:10:46.884Z,6.80
2018-09-11T01:13:15.489Z,6.83
2018-09-11T01:15:45.317Z,6.70
2018-09-11T01:18:14.000Z,6.10
2018-09-11T01:20:43.593Z,6.03
2018-09-11T01:23:12.308Z,6.67
2018-09-11T01:25:41.272Z,6.20
2018-09-11T01:28:10.577Z,5.73
2018-09-11T01:30:39.712Z,6.37
2018-09-11T01:33:08.989Z,6.23
2018-09-11T01:35:37.927Z,6.00
2018-09-11T01:38:06.818Z,6.03
2018-09-11T01:40:35.686Z,5.97
2018-09-11T01:43:04.249Z,5.63
2018-09-11T01:45:33.214Z,6.17
2018-09-11T01:48:02.469Z,5.70
2018-09-11T01:50:32.485Z,5.63
2018-09-11T01:53:02.006Z,5.60
2018-09-11T01:55:31.000Z,5.23
2018-09-11T01:57:59.926Z,5.13
2018-09-11T02:00:29.226Z,4.80
2018-09-11T02:02:58.396Z,5.07
2018-09-11T02:05:27.534Z,4.63
2018-09-11T02:07:57.450Z,5.10
2018-09-11T02:10:26.626Z,4.50
2018-09-11T02:12:55.256Z,4.10
2018-09-11T02:15:23.804Z,4.43
2018-09-11T02:17:52.957Z,4.30
2018-09-11T02:20:22.037Z,4.20
2018-09-11T02:22:50.763Z,4.27
2018-09-11T02:25:19.473Z,3.87
2018-09-11T02:27:48.766Z,4.30
2018-09-11T02:30:18.483Z,4.10
2018-09-11T02:32:46.987Z,3.93
2018-09-11T02:35:16.300Z,3.70
2018-09-11T02:37:45.025Z,3.93
2018-09-11T02:40:13.485Z,4.17
2018-09-11T02:42:42.429Z,4.03
2018-09-11T02:45:11.798Z,4.00
2018-09-11T02:47:40.734Z,4.27
2018-09-11T02:50:09.860Z,3.80
2018-09-11T02:52:38.945Z,4.27
2018-09-11T02:55:08.794Z,3.93
2018-09-11T02:57:37.869Z,3.70
2018-09-11T03:00:06.971Z,3.80
2018-09-11T03:02:36.149Z,3.93
2018-09-11T03:05:04.701Z,3.77
2018-09-11T03:07:34.797Z,3.50
2018-09-11T03:10:03.819Z,3.80
2018-09-11T03:12:32.819Z,3.37
2018-09-11T03:15:01.813Z,3.57
2018-09-11T03:17:31.157Z,3.70
2018-09-11T03:20:00.115Z,3.57
2018-09-11T03:22:29.049Z,3.30
2018-09-11T03:24:58.872Z,3.87
2018-09-11T03:27:27.608Z,3.40
2018-09-11T03:29:56.989Z,3.10
2018-09-11T03:32:26.065Z,3.50
2018-09-11T03:34:54.713Z,3.50
2018-09-11T03:37:23.793Z,3.60
2018-09-11T03:39:52.930Z,3.43
2018-09-11T03:42:22.114Z,3.53
2018-09-11T03:44:50.705Z,3.40
2018-09-11T03:47:19.701Z,3.40
2018-09-11T03:49:49.418Z,3.50
2018-09-11T03:52:18.827Z,3.73
2018-09-11T03:54:47.612Z,3.70
2018-09-11T03:57:19.173Z,3.60
2018-09-11T03:59:48.256Z,3.40
2018-09-11T04:02:17.329Z,3.40
2018-09-11T04:04:46.275Z,4.30
2018-09-11T04:07:15.453Z,3.70
2018-09-11T04:09:44.109Z,3.90
2018-09-11T04:12:13.644Z,3.40
2018-09-11T04:14:43.325Z,3.90
2018-09-11T04:17:12.762Z,3.53
2018-09-11T04:19:42.673Z,3.77
2018-09-11T04:22:11.290Z,3.80
2018-09-11T04:24:40.382Z,3.33
2018-09-11T04:27:09.361Z,3.77
2018-09-11T04:29:38.051Z,3.87
2018-09-11T04:32:07.052Z,4.23
2018-09-11T04:34:37.037Z,4.43
2018-09-11T04:37:06.177Z,3.80
2018-09-11T04:39:35.385Z,4.07
2018-09-11T04:42:04.149Z,4.07
2018-09-11T04:44:32.868Z,4.00
2018-09-11T04:47:01.809Z,3.97
2018-09-11T04:49:31.069Z,3.87
2018-09-11T04:52:03.961Z,3.60
2018-09-11T04:54:33.193Z,4.70
2018-09-11T04:57:01.904Z,4.10
2018-09-11T04:59:31.337Z,3.67
2018-09-11T05:02:01.399Z,3.77
2018-09-11T05:04:30.353Z,3.67
2018-09-11T05:06:59.364Z,3.50
2018-09-11T05:09:29.114Z,3.90
2018-09-11T05:11:58.065Z,3.77
2018-09-11T05:14:27.472Z,3.67
2018-09-11T05:16:56.980Z,3.60
2018-09-11T05:19:25.605Z,4.07
2018-09-11T05:21:54.653Z,3.17
2018-09-11T05:24:24.173Z,3.77
2018-09-11T05:26:52.913Z,3.67
2018-09-11T05:29:22.375Z,3.30
2018-09-11T05:31:51.368Z,3.43
2018-09-11T05:34:20.272Z,3.20
2018-09-11T05:36:48.882Z,3.47
2018-09-11T05:39:18.165Z,3.77
2018-09-11T05:41:47.316Z,3.67
2018-09-11T05:44:16.565Z,3.73
2018-09-11T05:46:45.569Z,3.40
2018-09-11T05:49:14.603Z,3.83
2018-09-11T05:51:43.476Z,3.80
2018-09-11T05:54:12.301Z,3.73
2018-09-11T05:56:42.191Z,3.67
2018-09-11T05:59:11.285Z,3.87
2018-09-11T06:01:41.282Z,4.10
2018-09-11T06:04:11.272Z,3.83
2018-09-11T06:06:40.432Z,4.03
2018-09-11T06:09:11.649Z,3.50
2018-09-11T06:11:41.076Z,3.07
2018-09-11T06:14:10.055Z,3.70
2018-09-11T06:16:39.106Z,3.83
2018-09-11T06:19:07.700Z,3.80
2018-09-11T06:21:36.864Z,4.00
2018-09-11T06:24:06.260Z,3.47
2018-09-11T06:26:34.860Z,3.87
2018-09-11T06:29:04.217Z,3.37
2018-09-11T06:31:33.475Z,4.07
2018-09-11T06:34:02.397Z,4.30
2018-09-11T06:36:31.575Z,3.63
2018-09-11T06:39:00.798Z,3.53
2018-09-11T06:41:30.079Z,3.60
2018-09-11T06:44:00.009Z,3.47
2018-09-11T06:46:29.527Z,3.30
2018-09-11T06:49:00.303Z,3.40
2018-09-11T06:51:29.016Z,4.07
2018-09-11T06:53:57.812Z,3.60
2018-09-11T06:56:26.751Z,3.33
2018-09-11T06:58:55.234Z,3.17
2018-09-11T07:01:24.644Z,3.60
2018-09-11T07:03:53.564Z,3.20
2018-09-11T07:06:22.102Z,2.80
2018-09-11T07:08:51.227Z,3.17
2018-09-11T07:11:20.524Z,3.47
2018-09-11T07:13:49.329Z,3.10
2018-09-11T07:16:18.575Z,3.47
2018-09-11T07:18:48.029Z,2.80
2018-09-11T07:21:17.186Z,3.03
2018-09-11T07:23:45.987Z,2.63
2018-09-11T07:26:14.718Z,3.20
2018-09-11T07:28:43.918Z,2.47
2018-09-11T07:31:13.714Z,2.70
2018-09-11T07:33:42.935Z,2.70
2018-09-11T07:36:12.277Z,2.17
2018-09-11T07:38:41.420Z,2.50
2018-09-11T07:41:11.577Z,3.10
2018-09-11T07:43:40.080Z,3.00
2018-09-11T07:46:09.359Z,2.70
2018-09-11T07:48:38.707Z,2.30
2018-09-11T07:51:07.736Z,2.13
2018-09-11T07:53:36.800Z,2.40
2018-09-11T07:56:06.143Z,2.40
2018-09-11T07:58:35.807Z,2.57
2018-09-11T08:01:04.589Z,3.40
2018-09-11T08:03:34.028Z,2.33
2018-09-11T08:06:03.604Z,2.60
2018-09-11T08:08:33.637Z,2.87
2018-09-11T08:11:02.920Z,2.60
2018-09-11T08:13:32.708Z,2.93
2018-09-11T08:16:01.528Z,2.80
2018-09-11T08:18:30.744Z,2.67
2018-09-11T08:21:00.957Z,2.93
2018-09-11T08:23:30.096Z,2.90
2018-09-11T08:25:59.847Z,2.83
2018-09-11T08:28:29.251Z,2.60
2018-09-11T08:30:58.180Z,2.17
2018-09-11T08:33:26.913Z,2.37
2018-09-11T08:35:55.880Z,2.70
2018-09-11T08:38:25.003Z,2.20
2018-09-11T08:40:54.864Z,2.50
2018-09-11T08:43:23.771Z,2.20
2018-09-11T08:45:53.056Z,3.47
2018-09-11T08:48:22.108Z,2.77
2018-09-11T08:50:50.744Z,2.77
2018-09-11T08:53:19.940Z,2.10
2018-09-11T08:55:49.144Z,2.47
2018-09-11T08:58:18.433Z,2.27
2018-09-11T09:00:47.468Z,2.57
2018-09-11T09:03:16.396Z,2.47
2018-09-11T09:05:45.428Z,3.13
2018-09-11T09:08:14.905Z,2.07
2018-09-11T09:10:44.041Z,2.50
2018-09-11T09:13:12.948Z,2.37
2018-09-11T09:15:41.697Z,2.80
2018-09-11T09:18:11.589Z,2.63
2018-09-11T09:20:40.702Z,2.70
2018-09-11T09:23:10.553Z,3.00
2018-09-11T09:25:39.852Z,2.40
2018-09-11T09:30:53.993Z,2.47
2018-09-11T09:33:23.384Z,2.87
2018-09-11T09:35:52.757Z,2.87
2018-09-11T09:38:21.383Z,2.90
2018-09-11T09:40:50.054Z,2.87
2018-09-11T09:43:19.055Z,2.27
2018-09-11T09:45:48.091Z,2.50
2018-09-11T09:48:17.376Z,2.30
2018-09-11T09:50:46.253Z,2.13
2018-09-11T09:53:15.424Z,2.43
2018-09-11T09:55:44.177Z,2.70
2018-09-11T09:58:13.727Z,2.60
2018-09-11T10:00:52.162Z,2.60
2018-09-11T10:03:21.072Z,2.60
2018-09-11T10:05:49.988Z,2.70
2018-09-11T10:08:19.052Z,2.50
2018-09-11T10:10:48.348Z,2.40
2018-09-11T10:13:17.283Z,3.20
2018-09-11T10:15:46.392Z,2.40
2018-09-11T10:18:19.355Z,3.03
2018-09-11T10:20:48.832Z,2.53
2018-09-11T10:23:18.952Z,2.50
2018-09-11T10:25:48.830Z,1.97
2018-09-11T10:28:17.832Z,2.23
2018-09-11T10:30:46.970Z,2.20
2018-09-11T10:33:15.305Z,3.17
2018-09-11T10:35:44.022Z,2.23
2018-09-11T10:38:13.081Z,2.73
2018-09-11T10:40:42.064Z,3.07
2018-09-11T10:43:10.850Z,2.43
2018-09-11T10:45:40.121Z,2.33
2018-09-11T10:48:09.787Z,2.43
2018-09-11T10:50:38.576Z,2.83
2018-09-11T10:53:07.713Z,2.60
2018-09-11T10:55:36.557Z,2.63
2018-09-11T10:58:05.412Z,2.63
2018-09-11T11:00:33.911Z,2.20
2018-09-11T11:03:03.456Z,2.53
2018-09-11T11:05:32.424Z,2.20
2018-09-11T11:08:01.236Z,2.30
2018-09-11T11:10:31.376Z,2.77
2018-09-11T11:13:00.919Z,2.40
2018-09-11T11:15:31.040Z,1.87
2018-09-11T11:18:00.020Z,2.57
2018-09-11T11:20:29.467Z,2.10
2018-09-11T11:22:58.598Z,2.50
2018-09-11T11:25:27.580Z,2.53
2018-09-11T11:27:57.131Z,2.33
2018-09-11T11:30:26.391Z,2.23
2018-09-11T11:32:56.098Z,2.53
2018-09-11T11:35:25.576Z,2.97
2018-09-11T11:37:54.833Z,3.03
2018-09-11T11:40:26.904Z,2.50
2018-09-11T11:42:56.026Z,2.60
2018-09-11T11:45:25.168Z,2.80
2018-09-11T11:47:53.772Z,3.50
2018-09-11T11:50:22.873Z,2.30
2018-09-11T11:52:51.590Z,2.40
2018-09-11T11:55:20.451Z,2.37
2018-09-11T11:57:49.888Z,2.53
2018-09-11T12:00:19.108Z,2.90
2018-09-11T12:02:48.183Z,2.90
2018-09-11T12:05:17.795Z,2.70
2018-09-11T12:07:46.445Z,2.20
2018-09-11T12:10:15.522Z,2.67
2018-09-11T12:12:44.865Z,2.03
2018-09-11T12:15:14.951Z,2.73
2018-09-11T12:17:44.017Z,2.63
2018-09-11T12:20:13.036Z,2.53
2018-09-11T12:22:42.209Z,2.57
2018-09-11T12:25:11.599Z,2.47
2018-09-11T12:27:40.381Z,2.70
2018-09-11T12:30:09.687Z,2.67
2018-09-11T12:32:38.901Z,2.23
2018-09-11T12:35:07.659Z,2.70
2018-09-11T12:37:36.692Z,3.17
2018-09-11T12:40:05.828Z,2.90
2018-09-11T12:42:35.304Z,2.57
2018-09-11T12:45:04.336Z,2.63
2018-09-11T12:47:33.610Z,2.47
2018-09-11T12:50:01.951Z,2.63
2018-09-11T12:52:31.884Z,2.87
2018-09-11T12:55:00.868Z,2.40
2018-09-11T12:57:29.185Z,2.17
2018-09-11T12:59:58.293Z,2.97
2018-09-11T13:02:27.359Z,3.33
2018-09-11T13:04:56.628Z,2.57
2018-09-11T13:07:25.310Z,2.63
2018-09-11T13:09:54.302Z,2.50
2018-09-11T13:12:23.579Z,2.40
2018-09-11T13:14:53.025Z,2.73
2018-09-11T13:17:22.027Z,2.40
2018-09-11T13:19:51.510Z,2.80
2018-09-11T13:22:20.818Z,2.30
2018-09-11T13:24:49.843Z,3.23
2018-09-11T13:27:19.686Z,2.93
2018-09-11T13:29:48.519Z,2.30
2018-09-11T13:32:18.020Z,2.40
2018-09-11T13:34:47.331Z,2.47
2018-09-11T13:37:16.432Z,2.33
2018-09-11T13:39:45.143Z,2.30
2018-09-11T13:42:14.416Z,2.30
2018-09-11T13:44:43.284Z,2.60
2018-09-11T13:47:12.446Z,2.67
2018-09-11T13:49:41.528Z,2.30
2018-09-11T13:52:10.712Z,2.57
2018-09-11T13:54:39.634Z,2.97
2018-09-11T13:57:08.658Z,2.90
2018-09-11T13:59:38.554Z,2.33
2018-09-11T14:02:07.924Z,2.90
2018-09-11T14:04:37.288Z,2.57
2018-09-11T14:07:06.235Z,2.83
2018-09-11T14:09:35.513Z,2.50
2018-09-11T14:12:03.940Z,2.17
2018-09-11T14:14:33.298Z,2.60
2018-09-11T14:17:02.594Z,2.53
2018-09-11T14:19:30.944Z,2.90
2018-09-11T14:22:00.160Z,2.27
2018-09-11T14:24:30.035Z,2.30
2018-09-11T14:26:58.769Z,2.87
2018-09-11T14:29:28.208Z,2.60
2018-09-11T14:31:57.632Z,2.70
2018-09-11T14:34:27.534Z,2.60
2018-09-11T14:36:56.573Z,2.43
2018-09-11T14:39:25.952Z,2.87
2018-09-11T14:41:54.666Z,2.60
2018-09-11T14:44:24.373Z,2.83
2018-09-11T14:46:53.915Z,2.67
2018-09-11T14:49:23.004Z,2.80
2018-09-11T14:51:52.968Z,3.03
2018-09-11T14:54:22.227Z,3.73
2018-09-11T14:56:51.144Z,2.30
2018-09-11T14:59:20.539Z,2.47
2018-09-11T15:01:50.609Z,3.40
2018-09-11T15:04:19.587Z,2.60
2018-09-11T15:06:48.520Z,2.87
2018-09-11T15:09:17.072Z,3.60
2018-09-11T15:11:45.681Z,2.80
2018-09-11T15:14:14.602Z,2.47
2018-09-11T15:16:44.418Z,2.40
2018-09-11T15:19:13.611Z,3.00
2018-09-11T15:21:43.068Z,2.60
2018-09-11T15:24:12.516Z,2.23
2018-09-11T15:26:41.736Z,2.47
2018-09-11T15:29:10.716Z,2.70
2018-09-11T15:31:41.046Z,2.80
2018-09-11T15:34:10.152Z,2.20
2018-09-11T15:36:39.821Z,2.37
2018-09-11T15:39:08.939Z,2.10
2018-09-11T15:41:38.034Z,2.20
2018-09-11T15:44:07.245Z,2.13
2018-09-11T15:46:35.905Z,2.37
2018-09-11T15:49:04.999Z,2.50
2018-09-11T15:51:33.940Z,2.67
2018-09-11T15:54:02.798Z,2.20
2018-09-11T15:56:32.250Z,2.63
2018-09-11T15:59:01.316Z,2.20
2018-09-11T16:01:32.566Z,2.47
2018-09-11T16:04:01.619Z,2.77
2018-09-11T16:06:30.488Z,2.70
2018-09-11T16:08:59.432Z,2.70
2018-09-11T16:11:28.708Z,2.60
2018-09-11T16:13:57.572Z,3.07
2018-09-11T16:16:26.595Z,2.73
2018-09-11T16:18:55.385Z,3.00
2018-09-11T16:21:24.407Z,2.60
2018-09-11T16:23:53.017Z,2.50
2018-09-11T16:26:22.131Z,2.60
2018-09-11T16:28:51.041Z,3.23
2018-09-11T16:31:20.206Z,2.60
2018-09-11T16:33:49.676Z,2.83
2018-09-11T16:36:19.316Z,2.73
2018-09-11T16:38:48.343Z,2.97
2018-09-11T16:41:17.298Z,2.80
2018-09-11T16:43:46.667Z,3.50
2018-09-11T16:46:16.081Z,2.93
2018-09-11T16:48:44.924Z,2.77
2018-09-11T16:51:13.664Z,3.03
2018-09-11T16:53:42.706Z,2.90
2018-09-11T16:56:11.632Z,2.90
2018-09-11T16:58:40.782Z,2.80
2018-09-11T17:01:09.882Z,3.23
2018-09-11T17:03:38.476Z,2.37
2018-09-11T17:06:07.466Z,1.70
2018-09-11T17:08:36.223Z,2.43
2018-09-11T17:11:05.872Z,2.23
2018-09-11T17:13:35.381Z,2.43
2018-09-11T17:16:04.372Z,1.90
2018-09-11T17:18:33.764Z,2.00
2018-09-11T17:21:02.929Z,2.13
2018-09-11T17:23:32.296Z,2.10
2018-09-11T17:26:05.397Z,1.80
2018-09-11T17:28:34.686Z,2.27
2018-09-11T17:31:06.286Z,1.67
2018-09-11T17:33:35.839Z,1.93
2018-09-11T17:36:05.273Z,2.30
2018-09-11T17:38:34.770Z,2.30
2018-09-11T17:41:04.093Z,2.30
2018-09-11T17:43:33.501Z,2.10
2018-09-11T17:46:02.902Z,2.20
2018-09-11T17:48:32.081Z,2.37
2018-09-11T17:51:01.552Z,2.13
2018-09-11T17:53:30.924Z,1.80
2018-09-11T17:56:01.049Z,2.00
2018-09-11T17:58:30.805Z,2.33
2018-09-11T18:01:00.610Z,1.70
2018-09-11T18:03:30.322Z,1.97
2018-09-11T18:05:59.783Z,1.80
2018-09-11T18:08:30.331Z,2.07
2018-09-11T18:11:00.396Z,1.60
2018-09-11T18:13:30.727Z,1.77
2018-09-11T18:16:00.566Z,2.00
2018-09-11T18:18:29.896Z,2.10
2018-09-11T18:20:59.122Z,1.97
2018-09-11T18:23:29.982Z,1.87
2018-09-11T18:25:59.217Z,2.23
2018-09-11T18:28:29.435Z,1.83
2018-09-11T18:30:58.741Z,2.00
2018-09-11T18:33:27.823Z,2.17
2018-09-11T18:35:57.745Z,2.20
2018-09-11T18:38:29.201Z,1.90
2018-09-11T18:40:59.524Z,2.50
2018-09-11T18:43:29.945Z,1.70
2018-09-11T18:46:00.067Z,1.80
2018-09-11T18:48:30.670Z,2.00
2018-09-11T18:50:59.787Z,1.60
2018-09-11T18:53:28.707Z,1.70
2018-09-11T18:55:58.565Z,1.70
2018-09-11T18:58:28.377Z,1.70
2018-09-11T19:00:57.929Z,2.00
2018-09-11T19:03:27.092Z,1.40
2018-09-11T19:05:56.829Z,1.50
2018-09-11T19:08:26.169Z,1.40
2018-09-11T19:10:56.484Z,1.50
2018-09-11T19:13:26.928Z,1.43
2018-09-11T19:15:56.534Z,2.10
2018-09-11T19:18:26.088Z,1.40
2018-09-11T19:20:55.287Z,1.33
2018-09-11T19:23:24.786Z,1.40
2018-09-11T19:25:54.437Z,1.30
2018-09-11T19:28:23.579Z,1.20
2018-09-11T19:30:52.899Z,1.63
2018-09-11T19:33:22.487Z,1.37
2018-09-11T19:35:55.796Z,1.67
2018-09-11T19:38:26.018Z,1.33
2018-09-11T19:40:55.491Z,1.30
2018-09-11T19:43:25.429Z,1.20
2018-09-11T19:45:55.291Z,1.40
2018-09-11T19:48:24.816Z,1.60
2018-09-11T19:50:54.992Z,1.20
2018-09-11T19:53:24.127Z,1.33
2018-09-11T19:55:58.177Z,1.47
2018-09-11T19:58:27.904Z,1.30
2018-09-11T20:00:57.435Z,1.57
2018-09-11T20:03:27.331Z,0.63
2018-09-11T20:05:57.023Z,1.17
2018-09-11T20:08:26.816Z,1.00
2018-09-11T20:10:56.361Z,0.93
2018-09-11T20:13:26.543Z,1.27
2018-09-11T20:15:56.888Z,1.00
2018-09-11T20:18:27.403Z,1.13
2018-09-11T20:20:57.060Z,1.00
2018-09-11T20:23:26.247Z,1.00
2018-09-11T20:25:55.941Z,0.90
2018-09-11T20:28:25.035Z,1.00
2018-09-11T20:30:53.916Z,1.00
2018-09-11T20:33:23.297Z,0.80
2018-09-11T20:35:52.591Z,1.20
2018-09-11T20:38:21.828Z,1.10
2018-09-11T20:40:51.128Z,1.20
2018-09-11T20:43:20.119Z,1.40
2018-09-11T20:45:49.142Z,1.33
2018-09-11T20:48:17.932Z,1.00
2018-09-11T20:50:46.811Z,1.33
2018-09-11T20:53:15.979Z,1.50
2018-09-11T20:55:45.031Z,1.27
2018-09-11T20:58:14.546Z,1.27
2018-09-11T21:00:43.719Z,1.50
2018-09-11T21:03:12.740Z,1.73
2018-09-11T21:05:42.042Z,1.47
2018-09-11T21:08:11.164Z,1.60
2018-09-11T21:10:41.253Z,1.80
2018-09-11T21:13:13.842Z,1.70
2018-09-11T21:15:43.149Z,1.90
2018-09-11T21:18:12.948Z,1.60
2018-09-11T21:20:42.472Z,2.23
2018-09-11T21:23:11.550Z,2.37
2018-09-11T21:25:41.228Z,2.37
2018-09-11T21:28:10.476Z,2.00
2018-09-11T21:30:39.075Z,2.30
2018-09-11T21:33:08.361Z,1.80
2018-09-11T21:35:37.179Z,2.00
2018-09-11T21:38:06.996Z,2.17
2018-09-11T21:40:40.508Z,2.00
2018-09-11T21:43:09.776Z,1.90
2018-09-11T21:45:38.732Z,2.30
2018-09-11T21:48:07.771Z,2.33
2018-09-11T21:50:37.192Z,2.47
2018-09-11T21:53:06.324Z,2.50
2018-09-11T21:55:35.809Z,2.27
2018-09-11T21:58:04.906Z,2.17
2018-09-11T22:00:34.209Z,2.57
2018-09-11T22:03:05.504Z,2.20
2018-09-11T22:05:35.240Z,2.37
2018-09-11T22:08:04.404Z,2.33
2018-09-11T22:10:33.360Z,2.70
2018-09-11T22:13:02.143Z,2.07
2018-09-11T22:15:30.888Z,2.50
2018-09-11T22:18:00.196Z,2.60
2018-09-11T22:20:29.667Z,2.50
2018-09-11T22:22:58.419Z,2.23
2018-09-11T22:25:27.038Z,2.73
2018-09-11T22:27:56.168Z,2.10
2018-09-11T22:30:24.883Z,2.97
2018-09-11T22:32:53.801Z,1.87
2018-09-11T22:35:22.768Z,2.40
2018-09-11T22:37:51.456Z,2.73
2018-09-11T22:40:20.495Z,2.40
2018-09-11T22:42:49.514Z,3.03
2018-09-11T22:45:18.464Z,2.20
2018-09-11T22:47:47.186Z,2.30
2018-09-11T22:50:15.953Z,2.70
2018-09-11T22:52:44.731Z,3.27
2018-09-11T22:55:13.313Z,2.53
2018-09-11T22:57:42.380Z,2.80
2018-09-11T23:00:12.227Z,3.23
2018-09-11T23:02:41.376Z,2.50
2018-09-11T23:05:10.416Z,2.10
2018-09-11T23:07:39.232Z,2.87
2018-09-11T23:10:08.161Z,2.30
2018-09-11T23:12:37.423Z,2.50
2018-09-11T23:15:07.259Z,2.40
2018-09-11T23:17:37.429Z,2.30
2018-09-11T23:20:06.716Z,2.87
2018-09-11T23:22:35.887Z,1.87
2018-09-11T23:25:04.735Z,2.23
2018-09-11T23:27:34.120Z,2.90
2018-09-11T23:30:03.104Z,2.67
2018-09-11T23:32:35.295Z,2.03
2018-09-11T23:35:04.644Z,2.30
2018-09-11T23:37:33.909Z,2.67
2018-09-11T23:40:03.588Z,2.33
2018-09-11T23:42:33.524Z,2.37
2018-09-11T23:45:02.548Z,2.10
2018-09-11T23:47:31.823Z,3.00
2018-09-11T23:50:01.423Z,2.50
2018-09-11T23:52:30.288Z,2.23
2018-09-11T23:54:59.232Z,2.20
2018-09-11T23:57:28.368Z,2.27
2018-09-11T23:59:57.838Z,2.40
